createdAt,value
2023-05-04T00:00:08.576Z,83.56
2023-05-04T00:02:36.562Z,84.86
2023-05-04T00:05:07.338Z,85.04
2023-05-04T00:07:35.149Z,86.63
2023-05-04T00:10:03.245Z,86.00
2023-05-04T00:12:31.406Z,86.78
2023-05-04T00:14:59.211Z,86.68
2023-05-04T00:17:27.162Z,84.96
2023-05-04T00:19:54.908Z,84.97
2023-05-04T00:22:24.026Z,86.64
2023-05-04T00:24:51.736Z,87.95
2023-05-04T00:27:19.517Z,87.45
2023-05-04T00:29:47.287Z,85.59
2023-05-04T00:32:14.992Z,85.86
2023-05-04T00:34:42.773Z,85.76
2023-05-04T00:37:10.575Z,85.56
2023-05-04T00:39:39.664Z,87.19
2023-05-04T00:42:07.678Z,87.92
2023-05-04T00:44:35.642Z,88.14
2023-05-04T00:47:04.297Z,86.08
2023-05-04T00:49:32.159Z,87.69
2023-05-04T00:52:04.097Z,86.83
2023-05-04T00:54:33.217Z,87.36
2023-05-04T00:57:03.787Z,85.35
2023-05-04T00:59:31.699Z,85.93
2023-05-04T01:01:59.380Z,88.00
2023-05-04T01:04:27.365Z,87.71
2023-05-04T01:07:01.929Z,88.38
2023-05-04T01:09:37.141Z,87.55
2023-05-04T01:12:08.724Z,87.15
2023-05-04T01:14:37.380Z,87.29
2023-05-04T01:17:06.985Z,87.16
2023-05-04T01:19:35.327Z,86.64
2023-05-04T01:22:06.225Z,87.65
2023-05-04T01:24:34.457Z,86.26
2023-05-04T01:27:06.629Z,87.53
2023-05-04T01:29:42.558Z,86.85
2023-05-04T01:32:11.937Z,86.07
2023-05-04T01:34:41.574Z,88.36
2023-05-04T01:37:11.156Z,87.12
2023-05-04T01:39:38.901Z,88.80
2023-05-04T01:42:07.390Z,87.96
2023-05-04T01:44:35.148Z,88.74
2023-05-04T01:47:02.940Z,89.07
2023-05-04T01:49:30.850Z,90.85
2023-05-04T01:51:58.572Z,90.33
2023-05-04T01:54:27.771Z,89.63
2023-05-04T01:56:55.552Z,88.98
2023-05-04T01:59:23.453Z,89.96
2023-05-04T02:01:51.362Z,90.99
2023-05-04T02:04:19.244Z,91.39
2023-05-04T02:06:47.841Z,90.44
2023-05-04T02:09:16.464Z,92.15
2023-05-04T02:11:46.579Z,91.62
2023-05-04T02:14:14.330Z,90.72
2023-05-04T02:16:42.161Z,89.58
2023-05-04T02:19:09.917Z,91.27
2023-05-04T02:21:37.685Z,91.85
2023-05-04T02:24:06.966Z,92.54
2023-05-04T02:26:34.780Z,93.42
2023-05-04T02:29:04.973Z,91.89
2023-05-04T02:31:32.899Z,92.18
2023-05-04T02:34:01.396Z,91.59
2023-05-04T02:36:29.142Z,92.50
2023-05-04T02:38:56.877Z,91.91
2023-05-04T02:41:24.638Z,92.83
2023-05-04T02:43:52.860Z,93.60
2023-05-04T02:46:22.129Z,93.44
2023-05-04T02:48:49.855Z,93.82
2023-05-04T02:51:17.743Z,94.23
2023-05-04T02:53:45.540Z,93.77
2023-05-04T02:56:13.357Z,95.35
2023-05-04T02:58:41.135Z,93.66
2023-05-04T03:01:08.924Z,92.72
2023-05-04T03:03:38.097Z,92.82
2023-05-04T03:06:06.362Z,93.35
2023-05-04T03:08:34.216Z,93.19
2023-05-04T03:11:01.983Z,92.71
2023-05-04T03:13:29.681Z,91.40
2023-05-04T03:15:57.534Z,91.85
2023-05-04T03:18:25.538Z,91.54
2023-05-04T03:20:55.074Z,91.91
2023-05-04T03:23:23.629Z,91.45
2023-05-04T03:25:51.368Z,91.73
2023-05-04T03:28:19.111Z,93.25
2023-05-04T03:30:47.012Z,92.88
2023-05-04T03:33:15.332Z,92.09
2023-05-04T03:35:43.260Z,92.44
2023-05-04T03:38:12.948Z,91.30
2023-05-04T03:40:40.777Z,91.84
2023-05-04T03:43:08.482Z,92.29
2023-05-04T03:45:36.926Z,92.48
2023-05-04T03:48:05.365Z,91.49
2023-05-04T03:50:33.207Z,93.55
2023-05-04T03:53:00.978Z,92.15
2023-05-04T03:55:30.991Z,92.72
2023-05-04T03:57:59.265Z,92.92
2023-05-04T04:00:28.034Z,92.96
2023-05-04T04:03:05.014Z,89.56
2023-05-04T04:05:34.173Z,91.54
2023-05-04T04:08:01.924Z,91.50
2023-05-04T04:10:31.868Z,91.48
2023-05-04T04:12:59.598Z,93.20
2023-05-04T04:15:27.728Z,91.71
2023-05-04T04:17:55.560Z,91.29
2023-05-04T04:20:23.481Z,91.72
2023-05-04T04:22:51.244Z,93.72
2023-05-04T04:25:19.084Z,92.64
2023-05-04T04:27:48.206Z,94.44
2023-05-04T04:30:16.913Z,95.01
2023-05-04T04:32:45.745Z,95.26
2023-05-04T04:35:14.068Z,94.46
2023-05-04T04:37:42.117Z,94.70
2023-05-04T04:40:11.459Z,95.27
2023-05-04T04:42:39.223Z,94.69
2023-05-04T04:45:09.654Z,94.80
2023-05-04T04:47:37.640Z,95.48
2023-05-04T04:50:06.819Z,97.12
2023-05-04T04:52:34.843Z,96.20
2023-05-04T04:55:04.291Z,96.38
2023-05-04T04:57:32.192Z,97.23
2023-05-04T05:00:00.828Z,98.25
2023-05-04T05:02:30.041Z,99.75
2023-05-04T05:04:58.042Z,99.88
2023-05-04T05:07:25.937Z,99.92
2023-05-04T05:09:53.752Z,100.00
2023-05-04T05:12:21.492Z,100.00
2023-05-04T05:14:50.691Z,100.00
2023-05-04T05:17:19.139Z,100.00
2023-05-04T05:19:48.183Z,100.00
2023-05-04T05:22:15.906Z,100.00
2023-05-04T05:24:43.789Z,100.00
2023-05-04T05:27:11.443Z,100.00
2023-05-04T05:29:39.543Z,100.00
2023-05-04T05:32:07.434Z,100.00
2023-05-04T05:34:38.834Z,100.00
2023-05-04T05:37:07.966Z,100.00
2023-05-04T05:39:36.873Z,93.26
2023-05-04T05:42:04.628Z,97.16
2023-05-04T05:44:32.440Z,92.86
2023-05-04T05:47:00.187Z,88.99
2023-05-04T05:49:27.904Z,89.81
2023-05-04T05:51:55.688Z,88.55
2023-05-04T05:54:24.785Z,89.92
2023-05-04T05:56:52.632Z,88.75
2023-05-04T05:59:20.358Z,88.04
2023-05-04T06:01:48.079Z,87.71
2023-05-04T06:04:16.001Z,86.43
2023-05-04T06:06:45.802Z,89.64
2023-05-04T06:09:14.052Z,88.75
2023-05-04T06:11:43.245Z,88.43
2023-05-04T06:14:10.988Z,91.74
2023-05-04T06:16:38.743Z,92.03
2023-05-04T06:19:07.291Z,97.21
2023-05-04T06:21:35.093Z,93.75
2023-05-04T06:24:02.793Z,91.47
2023-05-04T06:26:30.571Z,90.25
2023-05-04T06:28:59.735Z,93.15
2023-05-04T06:31:28.033Z,88.69
2023-05-04T06:33:55.845Z,92.27
2023-05-04T06:36:25.645Z,90.76
2023-05-04T06:38:55.484Z,92.85
2023-05-04T06:41:23.389Z,93.42
2023-05-04T06:43:51.584Z,93.45
2023-05-04T06:46:20.713Z,88.90
2023-05-04T06:48:48.680Z,86.24
2023-05-04T06:51:16.592Z,83.99
2023-05-04T06:53:44.360Z,84.75
2023-05-04T06:56:12.432Z,89.90
2023-05-04T06:58:40.162Z,88.25
2023-05-04T07:01:09.249Z,87.83
2023-05-04T07:03:38.820Z,87.45
2023-05-04T07:06:07.141Z,85.42
2023-05-04T07:08:35.013Z,81.71
2023-05-04T07:11:02.776Z,80.66
2023-05-04T07:13:30.559Z,77.39
2023-05-04T07:15:58.408Z,76.18
2023-05-04T07:18:26.289Z,81.32
2023-05-04T07:21:01.793Z,77.48
2023-05-04T07:23:39.278Z,78.38
2023-05-04T07:26:08.045Z,77.27
2023-05-04T07:28:35.784Z,74.76
2023-05-04T07:31:03.813Z,75.45
2023-05-04T07:33:31.619Z,74.14
2023-05-04T07:36:01.375Z,72.65
2023-05-04T07:38:29.168Z,70.26
2023-05-04T07:40:57.481Z,70.26
2023-05-04T07:43:25.495Z,72.54
2023-05-04T07:45:54.407Z,72.46
2023-05-04T07:48:24.005Z,73.23
2023-05-04T07:50:53.785Z,73.61
2023-05-04T07:53:25.333Z,72.07
2023-05-04T07:55:54.201Z,72.59
2023-05-04T07:58:22.322Z,73.96
2023-05-04T08:00:50.510Z,71.05
2023-05-04T08:03:18.311Z,72.08
2023-05-04T08:05:46.310Z,71.50
2023-05-04T08:08:14.056Z,71.76
2023-05-04T08:10:43.123Z,71.56
2023-05-04T08:13:10.906Z,71.78
2023-05-04T08:15:38.727Z,70.82
2023-05-04T08:18:06.499Z,70.59
2023-05-04T08:20:34.409Z,70.57
2023-05-04T08:23:03.832Z,70.29
2023-05-04T08:25:31.626Z,71.81
2023-05-04T08:28:01.891Z,73.31
2023-05-04T08:30:31.297Z,70.30
2023-05-04T08:33:00.300Z,72.29
2023-05-04T08:35:28.745Z,71.19
2023-05-04T08:37:56.643Z,68.73
2023-05-04T08:40:24.995Z,71.05
2023-05-04T08:42:52.981Z,71.44
2023-05-04T08:45:23.134Z,71.70
2023-05-04T08:47:51.798Z,71.16
2023-05-04T08:50:19.567Z,71.44
2023-05-04T08:52:47.935Z,69.49
2023-05-04T08:55:17.104Z,69.04
2023-05-04T08:57:45.532Z,68.58
2023-05-04T09:00:17.317Z,69.15
2023-05-04T09:02:47.073Z,69.43
2023-05-04T09:05:15.869Z,69.94
2023-05-04T09:07:43.777Z,68.86
2023-05-04T09:10:11.991Z,67.53
2023-05-04T09:12:39.740Z,69.57
2023-05-04T09:15:18.122Z,68.94
2023-05-04T09:17:58.269Z,68.70
2023-05-04T09:20:26.728Z,69.14
2023-05-04T09:23:02.162Z,68.23
2023-05-04T09:25:29.887Z,67.60
2023-05-04T09:27:58.258Z,69.33
2023-05-04T09:30:26.132Z,68.17
2023-05-04T09:32:53.931Z,66.90
2023-05-04T09:35:33.718Z,68.12
2023-05-04T09:38:02.237Z,69.42
2023-05-04T09:40:33.831Z,68.17
2023-05-04T09:43:01.998Z,66.72
2023-05-04T09:45:40.097Z,66.98
2023-05-04T09:48:18.856Z,70.20
2023-05-04T09:50:55.183Z,67.75
2023-05-04T09:53:24.991Z,66.58
2023-05-04T09:56:04.462Z,66.58
2023-05-04T09:58:34.383Z,66.13
2023-05-04T10:01:02.697Z,64.27
2023-05-04T10:03:31.241Z,64.14
2023-05-04T10:06:01.276Z,67.81
2023-05-04T10:08:29.538Z,64.58
2023-05-04T10:10:58.454Z,63.42
2023-05-04T10:13:26.866Z,66.28
2023-05-04T10:16:10.674Z,61.69
2023-05-04T10:18:53.509Z,59.18
2023-05-04T10:21:33.944Z,59.66
2023-05-04T10:24:38.324Z,58.56
2023-05-04T10:27:11.785Z,59.40
2023-05-04T10:29:40.616Z,59.73
2023-05-04T10:32:18.957Z,54.58
2023-05-04T10:34:46.836Z,56.97
2023-05-04T10:37:21.795Z,51.13
2023-05-04T10:39:53.778Z,49.22
2023-05-04T10:42:22.287Z,50.59
2023-05-04T10:44:51.347Z,45.13
2023-05-04T10:47:29.620Z,47.98
2023-05-04T10:50:05.220Z,44.83
2023-05-04T10:52:46.623Z,44.62
2023-05-04T10:55:15.263Z,44.77
2023-05-04T10:57:50.716Z,43.41
2023-05-04T11:00:19.550Z,42.89
2023-05-04T11:02:48.815Z,46.15
2023-05-04T11:05:19.951Z,42.90
2023-05-04T11:07:53.098Z,44.29
2023-05-04T11:10:22.793Z,42.48
2023-05-04T11:12:50.732Z,44.07
2023-05-04T11:15:20.071Z,40.19
2023-05-04T11:17:48.487Z,39.96
2023-05-04T11:20:23.212Z,38.89
2023-05-04T11:22:53.426Z,41.96
2023-05-04T11:25:28.646Z,39.80
2023-05-04T11:27:56.996Z,40.11
2023-05-04T11:30:32.590Z,40.85
2023-05-04T11:33:00.942Z,38.15
2023-05-04T11:35:29.023Z,39.92
2023-05-04T11:37:58.072Z,35.15
2023-05-04T11:40:27.371Z,38.00
2023-05-04T11:42:57.530Z,37.84
2023-05-04T11:45:29.497Z,36.48
2023-05-04T11:47:58.527Z,38.15
2023-05-04T11:50:27.875Z,38.02
2023-05-04T11:53:06.963Z,34.33
2023-05-04T11:55:34.881Z,36.18
2023-05-04T11:58:04.343Z,35.67
2023-05-04T12:00:38.680Z,37.07
2023-05-04T12:03:07.477Z,36.54
2023-05-04T12:05:36.896Z,33.00
2023-05-04T12:08:07.509Z,36.79
2023-05-04T12:10:35.654Z,35.52
2023-05-04T12:13:03.647Z,34.98
2023-05-04T12:15:33.509Z,32.91
2023-05-04T12:18:03.000Z,32.75
2023-05-04T12:20:31.619Z,34.46
2023-05-04T12:22:59.525Z,34.11
2023-05-04T12:25:28.657Z,32.10
2023-05-04T12:27:56.405Z,32.52
2023-05-04T12:30:24.152Z,32.82
2023-05-04T12:32:51.967Z,33.43
2023-05-04T12:35:19.781Z,33.06
2023-05-04T12:37:48.096Z,33.88
2023-05-04T12:40:27.629Z,33.19
2023-05-04T12:42:58.523Z,32.86
2023-05-04T12:45:26.287Z,32.76
2023-05-04T12:47:54.030Z,32.47
2023-05-04T12:50:21.930Z,31.62
2023-05-04T12:52:49.720Z,32.57
2023-05-04T12:55:18.570Z,30.77
2023-05-04T12:57:46.472Z,30.77
2023-05-04T13:00:16.706Z,30.13
2023-05-04T13:02:44.537Z,30.36
2023-05-04T13:05:12.921Z,31.34
2023-05-04T13:07:40.714Z,28.93
2023-05-04T13:10:09.133Z,31.66
2023-05-04T13:12:38.269Z,30.66
2023-05-04T13:15:07.501Z,31.12
2023-05-04T13:17:37.830Z,31.38
2023-05-04T13:20:06.672Z,29.38
2023-05-04T13:22:34.617Z,30.96
2023-05-04T13:25:02.494Z,29.65
2023-05-04T13:27:30.648Z,30.28
2023-05-04T13:30:00.965Z,30.03
2023-05-04T13:32:28.773Z,29.57
2023-05-04T13:34:58.010Z,29.34
2023-05-04T13:37:25.827Z,27.86
2023-05-04T13:39:53.872Z,30.23
2023-05-04T13:42:21.625Z,29.18
2023-05-04T13:44:49.321Z,29.40
2023-05-04T13:47:17.549Z,29.33
2023-05-04T13:49:45.523Z,28.44
2023-05-04T13:52:14.674Z,29.88
2023-05-04T13:54:42.378Z,30.41
2023-05-04T13:57:10.091Z,30.13
2023-05-04T13:59:37.856Z,30.20
2023-05-04T14:02:05.729Z,29.24
2023-05-04T14:04:33.455Z,30.73
2023-05-04T14:07:01.298Z,31.50
2023-05-04T14:09:30.458Z,31.10
2023-05-04T14:11:58.681Z,31.99
2023-05-04T14:14:26.453Z,30.85
2023-05-04T14:16:54.235Z,32.23
2023-05-04T14:19:22.012Z,30.94
2023-05-04T14:21:49.724Z,33.24
2023-05-04T14:24:17.474Z,32.61
2023-05-04T14:26:46.764Z,32.45
2023-05-04T14:29:14.485Z,32.02
2023-05-04T14:31:42.279Z,31.42
2023-05-04T14:34:10.862Z,32.31
2023-05-04T14:36:38.569Z,32.72
2023-05-04T14:39:06.476Z,32.09
2023-05-04T14:41:35.535Z,32.17
2023-05-04T14:44:05.577Z,33.62
2023-05-04T14:46:33.895Z,32.68
2023-05-04T14:49:01.767Z,32.62
2023-05-04T14:51:29.996Z,32.88
2023-05-04T14:53:59.610Z,33.36
2023-05-04T14:56:28.474Z,32.53
2023-05-04T14:58:57.246Z,32.33
2023-05-04T15:01:26.493Z,32.11
2023-05-04T15:03:54.377Z,31.35
2023-05-04T15:06:22.240Z,33.07
2023-05-04T15:08:49.977Z,32.47
2023-05-04T15:11:19.309Z,32.49
2023-05-04T15:13:47.277Z,33.23
2023-05-04T15:16:18.250Z,33.50
2023-05-04T15:18:47.368Z,33.35
2023-05-04T15:21:15.156Z,33.10
2023-05-04T15:23:43.004Z,33.56
2023-05-04T15:26:10.818Z,34.20
2023-05-04T15:28:38.569Z,34.46
2023-05-04T15:31:07.327Z,33.93
2023-05-04T15:33:35.065Z,35.02
2023-05-04T15:36:07.639Z,34.11
2023-05-04T15:38:36.111Z,35.09
2023-05-04T15:41:05.475Z,34.36
2023-05-04T15:43:33.268Z,35.17
2023-05-04T15:46:01.122Z,35.04
2023-05-04T15:48:28.883Z,34.78
2023-05-04T15:50:56.671Z,35.34
2023-05-04T15:53:25.819Z,34.34
2023-05-04T15:55:53.752Z,37.01
2023-05-04T15:58:22.884Z,36.13
2023-05-04T16:00:50.785Z,35.00
2023-05-04T16:03:18.891Z,35.92
2023-05-04T16:05:46.721Z,35.02
2023-05-04T16:08:17.016Z,35.56
2023-05-04T16:10:47.553Z,33.93
2023-05-04T16:13:15.351Z,34.84
2023-05-04T16:15:43.103Z,36.49
2023-05-04T16:18:11.447Z,35.91
2023-05-04T16:20:39.208Z,36.29
2023-05-04T16:23:06.996Z,36.34
2023-05-04T16:25:34.805Z,36.08
2023-05-04T16:28:03.989Z,35.51
2023-05-04T16:33:03.280Z,37.60
2023-05-04T16:35:31.980Z,37.33
2023-05-04T16:38:00.398Z,38.04
2023-05-04T16:40:28.512Z,36.99
2023-05-04T16:42:56.246Z,36.41
2023-05-04T16:45:30.983Z,37.73
2023-05-04T16:48:00.178Z,36.84
2023-05-04T16:50:27.956Z,37.94
2023-05-04T16:52:55.822Z,37.58
2023-05-04T16:55:23.700Z,39.27
2023-05-04T16:57:51.421Z,39.03
2023-05-04T17:00:19.958Z,40.19
2023-05-04T17:02:49.085Z,39.49
2023-05-04T17:05:17.029Z,40.45
2023-05-04T17:07:44.809Z,40.03
2023-05-04T17:10:13.679Z,41.19
2023-05-04T17:12:42.158Z,42.29
2023-05-04T17:15:11.193Z,43.09
2023-05-04T17:17:38.979Z,43.56
2023-05-04T17:20:14.927Z,46.60
2023-05-04T17:22:43.101Z,42.96
2023-05-04T17:29:25.342Z,42.72
2023-05-04T17:31:53.077Z,41.48
2023-05-04T17:34:20.769Z,45.20
2023-05-04T17:36:49.763Z,45.60
2023-05-04T17:39:18.637Z,45.92
2023-05-04T17:41:48.489Z,48.28
2023-05-04T17:44:16.526Z,47.19
2023-05-04T17:46:44.450Z,46.48
2023-05-04T17:49:12.119Z,47.25
2023-05-04T17:51:40.569Z,45.88
2023-05-04T17:54:09.579Z,45.63
2023-05-04T17:56:37.232Z,46.02
2023-05-04T17:59:04.867Z,47.29
2023-05-04T18:01:32.628Z,46.47
2023-05-04T18:04:03.214Z,46.79
2023-05-04T18:06:31.631Z,45.87
2023-05-04T18:08:59.543Z,45.53
2023-05-04T18:11:28.758Z,47.18
2023-05-04T18:13:59.411Z,47.38
2023-05-04T18:16:27.233Z,48.36
2023-05-04T18:18:56.068Z,48.16
2023-05-04T18:21:25.953Z,48.21
2023-05-04T18:23:53.725Z,50.00
2023-05-04T18:26:22.652Z,51.11
2023-05-04T18:28:52.000Z,49.26
2023-05-04T18:31:20.358Z,49.33
2023-05-04T18:33:48.199Z,51.56
2023-05-04T18:36:15.875Z,52.91
2023-05-04T18:38:43.552Z,49.27
2023-05-04T18:41:11.858Z,50.63
2023-05-04T18:43:39.597Z,51.94
2023-05-04T18:46:09.326Z,53.54
2023-05-04T18:48:37.969Z,54.10
2023-05-04T18:51:05.790Z,55.74
2023-05-04T18:53:36.838Z,55.17
2023-05-04T18:56:05.211Z,57.54
2023-05-04T18:58:33.290Z,57.98
2023-05-04T19:01:01.198Z,55.64
2023-05-04T19:03:30.658Z,54.97
2023-05-04T19:05:58.480Z,55.17
2023-05-04T19:08:26.422Z,57.41
2023-05-04T19:10:58.056Z,58.48
2023-05-04T19:13:26.281Z,59.81
2023-05-04T19:15:54.113Z,60.23
2023-05-04T19:18:22.147Z,59.81
2023-05-04T19:20:51.525Z,62.62
2023-05-04T19:23:19.278Z,60.38
2023-05-04T19:25:46.975Z,61.62
2023-05-04T19:28:15.057Z,61.80
2023-05-04T19:30:42.910Z,62.63
2023-05-04T19:33:10.745Z,62.57
2023-05-04T19:35:38.449Z,62.24
2023-05-04T19:38:07.845Z,63.24
2023-05-04T19:40:36.233Z,63.97
2023-05-04T19:43:04.516Z,64.63
2023-05-04T19:45:32.748Z,65.48
2023-05-04T19:48:00.541Z,65.87
2023-05-04T19:50:28.294Z,65.09
2023-05-04T19:52:56.772Z,65.30
2023-05-04T19:55:25.985Z,67.70
2023-05-04T19:57:53.762Z,67.86
2023-05-04T20:00:21.436Z,68.42
2023-05-04T20:02:49.579Z,67.72
2023-05-04T20:05:17.607Z,68.09
2023-05-04T20:07:45.407Z,69.22
2023-05-04T20:10:13.159Z,68.55
2023-05-04T20:12:42.245Z,69.95
2023-05-04T20:15:10.784Z,69.53
2023-05-04T20:17:38.679Z,69.04
2023-05-04T20:20:07.894Z,69.48
2023-05-04T20:22:35.914Z,70.87
2023-05-04T20:25:03.704Z,70.13
2023-05-04T20:27:31.401Z,71.00
2023-05-04T20:30:00.546Z,70.35
2023-05-04T20:32:28.911Z,70.11
2023-05-04T20:34:56.764Z,69.38
2023-05-04T20:37:24.488Z,67.80
2023-05-04T20:39:52.790Z,70.38
2023-05-04T20:42:20.890Z,71.75
2023-05-04T20:44:48.585Z,71.50
2023-05-04T20:47:18.625Z,72.43
2023-05-04T20:49:46.408Z,73.49
2023-05-04T20:52:14.153Z,72.29
2023-05-04T20:54:42.378Z,71.35
2023-05-04T20:57:10.386Z,72.76
2023-05-04T20:59:38.234Z,71.32
2023-05-04T21:02:05.987Z,74.40
2023-05-04T21:04:35.123Z,73.82
2023-05-04T21:07:02.882Z,73.59
2023-05-04T21:09:30.602Z,76.36
2023-05-04T21:11:58.457Z,76.66
2023-05-04T21:14:26.230Z,78.32
2023-05-04T21:16:53.948Z,78.20
2023-05-04T21:19:21.661Z,78.68
2023-05-04T21:21:50.824Z,78.82
2023-05-04T21:24:18.573Z,78.92
2023-05-04T21:26:48.392Z,80.06
2023-05-04T21:29:16.324Z,78.09
2023-05-04T21:31:44.278Z,77.25
2023-05-04T21:34:12.239Z,77.65
2023-05-04T21:36:40.425Z,80.62
2023-05-04T21:39:09.588Z,79.59
2023-05-04T21:41:37.404Z,80.28
2023-05-04T21:44:05.481Z,79.67
2023-05-04T21:46:33.231Z,80.01
2023-05-04T21:49:01.293Z,79.14
2023-05-04T21:51:29.368Z,81.10
2023-05-04T21:53:57.132Z,81.53
2023-05-04T21:56:26.265Z,81.82
2023-05-04T21:58:54.095Z,82.99
2023-05-04T22:01:22.030Z,81.97
2023-05-04T22:03:50.609Z,83.22
2023-05-04T22:06:18.776Z,83.91
2023-05-04T22:08:46.594Z,82.91
2023-05-04T22:11:14.366Z,83.76
2023-05-04T22:13:43.587Z,83.48
2023-05-04T22:16:11.372Z,83.75
2023-05-04T22:18:39.514Z,83.64
2023-05-04T22:21:07.320Z,81.78
2023-05-04T22:23:35.084Z,82.39
2023-05-04T22:26:03.254Z,83.80
2023-05-04T22:28:31.147Z,83.84
2023-05-04T22:31:00.622Z,84.39
2023-05-04T22:33:28.405Z,84.35
2023-05-04T22:35:56.104Z,85.19
2023-05-04T22:38:23.984Z,85.32
2023-05-04T22:40:51.768Z,86.43
2023-05-04T22:43:19.667Z,83.50
2023-05-04T22:45:47.423Z,82.86
2023-05-04T22:48:16.625Z,82.62
2023-05-04T22:50:44.403Z,82.49
2023-05-04T22:53:12.103Z,84.32
2023-05-04T22:55:39.865Z,85.62
2023-05-04T22:58:07.997Z,87.02
2023-05-04T23:00:36.421Z,87.62
2023-05-04T23:03:04.423Z,87.02
2023-05-04T23:05:33.584Z,87.63
2023-05-04T23:08:01.357Z,87.77
2023-05-04T23:10:29.180Z,87.96
2023-05-04T23:12:57.150Z,86.35
2023-05-04T23:15:25.466Z,88.13
2023-05-04T23:17:53.605Z,89.23
2023-05-04T23:20:21.540Z,88.84
2023-05-04T23:22:50.983Z,90.51
2023-05-04T23:25:18.862Z,90.38
2023-05-04T23:27:46.706Z,90.24
2023-05-04T23:30:15.616Z,91.68
2023-05-04T23:32:43.356Z,89.81
2023-05-04T23:35:11.179Z,87.59
2023-05-04T23:37:38.990Z,90.91
2023-05-04T23:40:10.147Z,91.11
2023-05-04T23:42:38.307Z,88.03
2023-05-04T23:45:07.491Z,88.19
2023-05-04T23:47:35.193Z,83.03
2023-05-04T23:50:03.041Z,82.05
2023-05-04T23:52:30.797Z,80.48
2023-05-04T23:54:58.568Z,84.90
2023-05-04T23:57:27.677Z,86.13
2023-05-04T23:59:55.401Z,86.00
